createdAt,value
2018-10-01T00:01:10.192Z,96.70
2018-10-01T00:03:39.740Z,97.60
2018-10-01T00:06:09.334Z,97.70
2018-10-01T00:08:38.896Z,97.80
2018-10-01T00:11:08.768Z,98.80
2018-10-01T00:13:38.233Z,98.90
2018-10-01T00:16:08.025Z,99.30
2018-10-01T00:18:37.731Z,99.90
2018-10-01T00:21:12.889Z,99.80
2018-10-01T00:23:42.458Z,99.90
2018-10-01T00:26:12.037Z,99.90
2018-10-01T00:28:41.535Z,99.90
2018-10-01T00:31:11.254Z,99.90
2018-10-01T00:33:40.915Z,99.90
2018-10-01T00:36:13.446Z,99.90
2018-10-01T00:38:43.047Z,99.90
2018-10-01T00:41:12.769Z,99.90
2018-10-01T00:43:42.451Z,99.90
2018-10-01T00:46:12.098Z,99.90
2018-10-01T00:48:41.727Z,99.90
2018-10-01T00:51:11.245Z,99.90
2018-10-01T00:53:40.851Z,99.90
2018-10-01T00:56:10.451Z,99.90
2018-10-01T00:58:40.066Z,99.90
2018-10-01T01:01:09.737Z,99.90
2018-10-01T01:03:39.409Z,99.90
2018-10-01T01:06:09.228Z,99.90
2018-10-01T01:08:38.986Z,99.90
2018-10-01T01:11:08.649Z,99.90
2018-10-01T01:13:38.385Z,99.90
2018-10-01T01:16:08.415Z,99.90
2018-10-01T01:18:38.117Z,99.90
2018-10-01T01:21:07.946Z,99.90
2018-10-01T01:23:37.802Z,99.90
2018-10-01T01:26:07.361Z,99.90
2018-10-01T01:28:37.267Z,99.90
2018-10-01T01:31:07.117Z,99.90
2018-10-01T01:33:36.972Z,99.90
2018-10-01T01:36:06.653Z,99.90
2018-10-01T01:38:36.611Z,99.90
2018-10-01T01:41:06.253Z,99.90
2018-10-01T01:43:36.966Z,99.90
2018-10-01T01:46:07.193Z,99.90
2018-10-01T01:48:37.681Z,99.90
2018-10-01T01:51:08.415Z,99.90
2018-10-01T01:53:38.253Z,99.90
2018-10-01T01:56:08.060Z,99.90
2018-10-01T01:58:37.657Z,99.90
2018-10-01T02:01:07.456Z,99.90
2018-10-01T02:03:37.326Z,99.90
2018-10-01T02:06:07.069Z,99.90
2018-10-01T02:08:36.559Z,99.90
2018-10-01T02:11:06.256Z,99.90
2018-10-01T02:13:35.920Z,99.90
2018-10-01T02:16:06.669Z,99.90
2018-10-01T02:18:36.221Z,99.90
2018-10-01T02:21:06.033Z,99.90
2018-10-01T02:23:35.916Z,99.90
2018-10-01T02:26:05.639Z,99.90
2018-10-01T02:28:35.339Z,99.90
2018-10-01T02:31:05.079Z,99.90
2018-10-01T02:33:34.692Z,99.90
2018-10-01T02:36:04.331Z,99.90
2018-10-01T02:38:34.761Z,99.90
2018-10-01T02:41:04.453Z,99.90
2018-10-01T02:43:34.086Z,99.90
2018-10-01T02:46:03.700Z,99.90
2018-10-01T02:48:33.664Z,99.90
2018-10-01T02:51:03.218Z,99.90
2018-10-01T02:53:38.141Z,99.90
2018-10-01T02:56:08.014Z,99.90
2018-10-01T02:58:37.622Z,99.90
2018-10-01T03:01:07.219Z,99.90
2018-10-01T03:03:37.174Z,99.90
2018-10-01T03:06:06.950Z,99.90
2018-10-01T03:08:36.693Z,99.90
2018-10-01T03:11:06.308Z,99.90
2018-10-01T03:13:35.968Z,99.90
2018-10-01T03:16:05.546Z,99.90
2018-10-01T03:18:35.018Z,99.90
2018-10-01T03:21:04.594Z,99.90
2018-10-01T03:23:34.200Z,99.90
2018-10-01T03:26:03.881Z,99.90
2018-10-01T03:28:33.425Z,99.90
2018-10-01T03:31:03.013Z,99.90
2018-10-01T03:33:32.621Z,99.90
2018-10-01T03:36:02.525Z,99.90
2018-10-01T03:38:32.137Z,99.90
2018-10-01T03:41:01.854Z,99.90
2018-10-01T03:43:31.449Z,99.90
2018-10-01T03:46:01.232Z,99.90
2018-10-01T03:48:30.897Z,99.90
2018-10-01T03:51:00.603Z,99.90
2018-10-01T03:53:30.225Z,99.90
2018-10-01T03:56:00.145Z,99.90
2018-10-01T03:58:29.844Z,99.90
2018-10-01T04:00:59.343Z,99.90
2018-10-01T04:03:29.143Z,99.90
2018-10-01T04:05:58.758Z,99.90
2018-10-01T04:08:28.473Z,99.90
2018-10-01T04:10:58.165Z,99.90
2018-10-01T04:13:27.909Z,99.90
2018-10-01T04:15:57.497Z,99.90
2018-10-01T04:18:27.027Z,99.90
2018-10-01T04:20:56.620Z,99.90
2018-10-01T04:23:26.324Z,99.90
2018-10-01T04:25:56.066Z,99.90
2018-10-01T04:28:25.686Z,99.90
2018-10-01T04:30:55.375Z,99.90
2018-10-01T04:33:24.925Z,99.90
2018-10-01T04:35:54.631Z,99.90
2018-10-01T04:38:24.277Z,99.90
2018-10-01T04:40:54.505Z,99.90
2018-10-01T04:43:24.118Z,99.90
2018-10-01T04:45:53.903Z,99.90
2018-10-01T04:48:23.418Z,99.90
2018-10-01T04:50:53.252Z,99.90
2018-10-01T04:53:23.044Z,99.90
2018-10-01T04:55:52.719Z,99.90
2018-10-01T04:58:22.306Z,99.90
2018-10-01T05:00:52.096Z,99.90
2018-10-01T05:03:21.873Z,99.90
2018-10-01T05:05:51.774Z,99.90
2018-10-01T05:08:21.544Z,99.90
2018-10-01T05:10:51.221Z,99.90
2018-10-01T05:13:21.210Z,99.90
2018-10-01T05:15:51.069Z,99.90
2018-10-01T05:18:20.533Z,99.90
2018-10-01T05:20:50.274Z,99.90
2018-10-01T05:23:20.002Z,99.90
2018-10-01T05:25:49.682Z,99.90
2018-10-01T05:28:20.050Z,99.90
2018-10-01T05:30:49.808Z,99.90
2018-10-01T05:33:19.467Z,99.90
2018-10-01T05:35:49.110Z,99.90
2018-10-01T05:38:18.722Z,99.90
2018-10-01T05:40:48.367Z,99.90
2018-10-01T05:43:18.154Z,99.90
2018-10-01T05:45:47.765Z,99.90
2018-10-01T05:48:17.565Z,99.90
2018-10-01T05:50:47.224Z,99.90
2018-10-01T05:53:16.741Z,99.90
2018-10-01T05:55:46.340Z,99.90
2018-10-01T05:58:16.089Z,99.90
2018-10-01T06:00:45.486Z,99.90
2018-10-01T06:03:15.242Z,99.90
2018-10-01T06:05:44.871Z,99.90
2018-10-01T06:08:14.720Z,99.90
2018-10-01T06:10:44.247Z,99.90
2018-10-01T06:13:13.968Z,99.90
2018-10-01T06:15:43.644Z,99.90
2018-10-01T06:18:14.270Z,99.90
2018-10-01T06:20:43.834Z,99.90
2018-10-01T06:23:13.596Z,99.90
2018-10-01T06:25:43.176Z,99.90
2018-10-01T06:28:12.776Z,99.90
2018-10-01T06:30:42.509Z,99.90
2018-10-01T06:33:12.186Z,99.90
2018-10-01T06:35:41.921Z,99.90
2018-10-01T06:38:11.716Z,99.90
2018-10-01T06:40:41.545Z,99.90
2018-10-01T06:43:11.140Z,99.90
2018-10-01T06:45:40.741Z,99.90
2018-10-01T06:48:10.806Z,99.90
2018-10-01T06:50:40.358Z,99.90
2018-10-01T06:53:10.408Z,99.90
2018-10-01T06:55:39.976Z,99.90
2018-10-01T06:58:09.698Z,99.90
2018-10-01T07:00:39.333Z,99.90
2018-10-01T07:03:09.096Z,99.90
2018-10-01T07:05:38.775Z,99.90
2018-10-01T07:08:08.333Z,99.90
2018-10-01T07:10:37.937Z,99.90
2018-10-01T07:13:08.281Z,99.90
2018-10-01T07:15:38.103Z,99.90
2018-10-01T07:18:07.957Z,99.90
2018-10-01T07:20:37.721Z,99.90
2018-10-01T07:23:07.735Z,99.90
2018-10-01T07:25:37.261Z,99.90
2018-10-01T07:28:07.337Z,99.90
2018-10-01T07:30:37.142Z,99.90
2018-10-01T07:33:07.166Z,99.90
2018-10-01T07:35:36.779Z,99.90
2018-10-01T07:38:06.898Z,99.80
2018-10-01T07:40:36.712Z,99.50
2018-10-01T07:43:06.789Z,99.70
2018-10-01T07:45:36.445Z,99.20
2018-10-01T07:48:06.415Z,99.40
2018-10-01T07:50:36.060Z,98.40
2018-10-01T07:53:06.391Z,97.80
2018-10-01T07:55:36.101Z,98.10
2018-10-01T07:58:06.005Z,97.60
2018-10-01T08:00:36.277Z,97.90
2018-10-01T08:03:05.918Z,97.20
2018-10-01T08:05:35.652Z,96.90
2018-10-01T08:08:05.384Z,95.90
2018-10-01T08:10:35.089Z,92.50
2018-10-01T08:13:04.903Z,84.20
2018-10-01T08:15:34.497Z,75.20
2018-10-01T08:18:04.120Z,69.70
2018-10-01T08:20:33.861Z,60.80
2018-10-01T08:23:03.752Z,51.10
2018-10-01T08:25:33.418Z,47.70
2018-10-01T08:28:03.258Z,50.30
2018-10-01T08:30:33.112Z,53.00
2018-10-01T08:33:03.392Z,55.50
2018-10-01T08:35:33.012Z,56.80
2018-10-01T08:38:02.781Z,57.60
2018-10-01T08:40:32.307Z,59.80
2018-10-01T08:43:01.916Z,59.40
2018-10-01T08:45:31.538Z,61.30
2018-10-01T08:48:01.234Z,62.00
2018-10-01T08:50:43.445Z,63.10
2018-10-01T08:53:49.726Z,65.30
2018-10-01T08:56:19.246Z,68.00
2018-10-01T08:58:48.738Z,69.80
2018-10-01T09:01:18.477Z,72.20
2018-10-01T09:03:48.137Z,72.50
2018-10-01T09:06:18.446Z,74.50
2018-10-01T09:08:48.190Z,74.70
2018-10-01T09:11:17.909Z,75.60
2018-10-01T09:13:47.599Z,77.00
2018-10-01T09:16:17.285Z,77.00
2018-10-01T09:18:46.890Z,78.30
2018-10-01T09:21:16.405Z,76.20
2018-10-01T09:23:46.625Z,70.70
2018-10-01T09:26:16.373Z,66.50
2018-10-01T09:28:45.961Z,64.10
2018-10-01T09:31:15.653Z,61.90
2018-10-01T09:33:45.169Z,58.30
2018-10-01T09:36:14.891Z,55.60
2018-10-01T09:38:44.591Z,54.30
2018-10-01T09:41:14.405Z,54.10
2018-10-01T09:43:44.275Z,51.60
2018-10-01T09:46:14.731Z,53.00
2018-10-01T09:48:44.254Z,50.00
2018-10-01T09:51:13.892Z,46.30
2018-10-01T09:53:43.731Z,46.60
2018-10-01T09:56:13.367Z,45.80
2018-10-01T09:58:42.878Z,45.80
2018-10-01T10:01:14.033Z,46.40
2018-10-01T10:03:43.785Z,45.40
2018-10-01T10:06:13.688Z,46.70
2018-10-01T10:08:43.758Z,45.20
2018-10-01T10:11:13.481Z,44.10
2018-10-01T10:13:43.096Z,44.10
2018-10-01T10:16:13.125Z,43.30
2018-10-01T10:18:42.838Z,45.50
2018-10-01T10:21:12.425Z,45.40
2018-10-01T10:23:42.147Z,45.60
2018-10-01T10:26:11.728Z,45.70
2018-10-01T10:28:41.316Z,46.30
2018-10-01T10:31:10.851Z,45.00
2018-10-01T10:33:40.360Z,44.20
2018-10-01T10:36:09.889Z,44.10
2018-10-01T10:38:39.712Z,43.80
2018-10-01T10:41:09.401Z,43.10
2018-10-01T10:43:39.296Z,42.90
2018-10-01T10:46:09.441Z,42.40
2018-10-01T10:48:39.274Z,43.80
2018-10-01T10:51:08.836Z,43.90
2018-10-01T10:53:39.764Z,44.80
2018-10-01T10:56:09.487Z,45.10
2018-10-01T10:58:39.053Z,43.10
2018-10-01T11:01:08.746Z,41.80
2018-10-01T11:03:38.331Z,41.20
2018-10-01T11:06:08.040Z,40.00
2018-10-01T11:08:37.934Z,40.70
2018-10-01T11:11:07.535Z,41.00
2018-10-01T11:13:37.338Z,39.70
2018-10-01T11:16:13.953Z,38.90
2018-10-01T11:18:44.099Z,39.70
2018-10-01T11:21:13.919Z,39.10
2018-10-01T11:23:43.475Z,37.50
2018-10-01T11:26:13.227Z,38.20
2018-10-01T11:28:43.289Z,39.50
2018-10-01T11:31:12.911Z,41.00
2018-10-01T11:33:43.028Z,39.00
2018-10-01T11:36:12.521Z,39.00
2018-10-01T11:38:42.030Z,40.10
2018-10-01T11:41:11.705Z,40.10
2018-10-01T11:43:41.311Z,37.50
2018-10-01T11:46:11.266Z,38.60
2018-10-01T11:48:40.838Z,41.00
2018-10-01T11:51:10.713Z,43.50
2018-10-01T11:53:40.392Z,45.30
2018-10-01T11:56:09.929Z,46.30
2018-10-01T11:58:39.507Z,44.80
2018-10-01T12:01:09.333Z,44.70
2018-10-01T12:03:38.963Z,46.90
2018-10-01T12:06:08.640Z,45.60
2018-10-01T12:08:38.219Z,46.80
2018-10-01T12:11:08.055Z,47.90
2018-10-01T12:13:37.723Z,49.50
2018-10-01T12:16:07.921Z,51.00
2018-10-01T12:18:37.420Z,51.30
2018-10-01T12:21:07.343Z,51.40
2018-10-01T12:23:36.998Z,51.80
2018-10-01T12:26:06.810Z,52.80
2018-10-01T12:28:36.407Z,52.30
2018-10-01T12:31:06.987Z,51.80
2018-10-01T12:33:36.659Z,52.20
2018-10-01T12:36:06.680Z,49.60
2018-10-01T12:38:36.538Z,48.30
2018-10-01T12:41:06.249Z,47.40
2018-10-01T12:43:35.751Z,48.10
2018-10-01T12:46:11.704Z,47.10
2018-10-01T12:48:41.610Z,47.60
2018-10-01T12:51:11.315Z,48.10
2018-10-01T12:53:40.914Z,50.60
2018-10-01T12:56:10.604Z,51.20
2018-10-01T12:58:40.232Z,50.40
2018-10-01T13:01:09.842Z,49.70
2018-10-01T13:03:39.589Z,50.40
2018-10-01T13:06:09.497Z,50.40
2018-10-01T13:08:39.109Z,51.20
2018-10-01T13:11:08.667Z,51.30
2018-10-01T13:13:38.346Z,51.60
2018-10-01T13:16:08.025Z,52.10
2018-10-01T13:18:37.679Z,51.50
2018-10-01T13:21:07.607Z,51.30
2018-10-01T13:23:37.331Z,51.40
2018-10-01T13:26:07.193Z,52.30
2018-10-01T13:28:37.280Z,53.10
2018-10-01T13:31:07.133Z,53.70
2018-10-01T13:33:37.102Z,52.50
2018-10-01T13:36:06.800Z,53.70
2018-10-01T13:38:36.471Z,54.50
2018-10-01T13:41:06.487Z,55.30
2018-10-01T13:43:36.179Z,55.60
2018-10-01T13:46:05.975Z,57.50
2018-10-01T13:48:36.203Z,58.30
2018-10-01T13:51:05.727Z,59.60
2018-10-01T13:53:35.641Z,59.40
2018-10-01T13:56:05.472Z,57.50
2018-10-01T13:58:35.225Z,56.40
2018-10-01T14:01:04.929Z,56.40
2018-10-01T14:03:35.308Z,55.50
2018-10-01T14:06:05.106Z,55.90
2018-10-01T14:08:34.885Z,56.20
2018-10-01T14:11:04.605Z,56.50
2018-10-01T14:13:34.442Z,56.10
2018-10-01T14:16:04.062Z,56.70
2018-10-01T14:18:33.618Z,57.40
2018-10-01T14:21:03.273Z,57.20
2018-10-01T14:23:32.832Z,57.60
2018-10-01T14:26:02.482Z,57.70
2018-10-01T14:28:32.152Z,67.20
2018-10-01T14:31:01.948Z,81.30
2018-10-01T14:33:31.664Z,91.40
2018-10-01T14:36:01.304Z,96.40
2018-10-01T14:38:31.013Z,99.40
2018-10-01T14:41:00.549Z,99.90
2018-10-01T14:43:30.413Z,99.90
2018-10-01T14:46:00.854Z,99.90
2018-10-01T14:48:30.635Z,99.90
2018-10-01T14:51:00.184Z,99.90
2018-10-01T14:53:29.936Z,99.90
2018-10-01T14:55:59.805Z,99.90
2018-10-01T14:58:29.677Z,99.90
2018-10-01T15:00:59.374Z,99.60
2018-10-01T15:03:29.121Z,99.90
2018-10-01T15:05:59.021Z,99.90
2018-10-01T15:08:28.757Z,99.90
2018-10-01T15:10:58.593Z,99.90
2018-10-01T15:13:28.303Z,99.90
2018-10-01T15:15:58.211Z,99.90
2018-10-01T15:18:27.812Z,99.90
2018-10-01T15:20:57.636Z,99.40
2018-10-01T15:23:27.384Z,99.90
2018-10-01T15:25:57.093Z,99.70
2018-10-01T15:28:26.749Z,98.50
2018-10-01T15:30:56.354Z,99.10
2018-10-01T15:33:25.977Z,99.90
2018-10-01T15:35:56.148Z,99.70
2018-10-01T15:38:25.906Z,99.70
2018-10-01T15:40:55.803Z,99.90
2018-10-01T15:43:25.536Z,99.90
2018-10-01T15:45:55.363Z,99.90
2018-10-01T15:48:24.981Z,99.90
2018-10-01T15:50:54.661Z,99.90
2018-10-01T15:53:24.276Z,99.90
2018-10-01T15:55:54.613Z,99.90
2018-10-01T15:58:24.209Z,99.90
2018-10-01T16:00:53.816Z,99.90
2018-10-01T16:03:23.418Z,99.90
2018-10-01T16:05:53.107Z,99.90
2018-10-01T16:08:23.036Z,99.90
2018-10-01T16:10:52.743Z,99.90
2018-10-01T16:13:22.554Z,99.90
2018-10-01T16:15:52.265Z,99.90
2018-10-01T16:18:22.002Z,99.90
2018-10-01T16:20:51.765Z,99.90
2018-10-01T16:23:21.426Z,99.90
2018-10-01T16:25:51.461Z,99.30
2018-10-01T16:28:21.130Z,97.70
2018-10-01T16:30:50.978Z,98.20
2018-10-01T16:33:20.557Z,98.80
2018-10-01T16:35:50.379Z,99.00
2018-10-01T16:38:20.778Z,98.30
2018-10-01T16:40:50.806Z,97.90
2018-10-01T16:43:20.366Z,97.80
2018-10-01T16:45:50.407Z,98.50
2018-10-01T16:48:20.093Z,98.90
2018-10-01T16:50:49.900Z,99.90
2018-10-01T16:53:19.569Z,99.90
2018-10-01T16:55:49.473Z,99.90
2018-10-01T16:58:19.331Z,99.90
2018-10-01T17:00:49.106Z,99.90
2018-10-01T17:03:18.688Z,99.90
2018-10-01T17:05:48.217Z,99.90
2018-10-01T17:08:17.799Z,99.90
2018-10-01T17:10:47.533Z,99.90
2018-10-01T17:13:17.700Z,99.90
2018-10-01T17:15:47.243Z,99.90
2018-10-01T17:18:16.961Z,99.90
2018-10-01T17:20:46.859Z,99.90
2018-10-01T17:23:16.439Z,99.90
2018-10-01T17:25:46.286Z,99.90
2018-10-01T17:28:15.909Z,99.90
2018-10-01T17:30:45.493Z,99.90
2018-10-01T17:33:15.265Z,99.90
2018-10-01T17:35:45.008Z,99.90
2018-10-01T17:38:14.855Z,99.90
2018-10-01T17:40:44.464Z,99.90
2018-10-01T17:43:14.332Z,99.90
2018-10-01T17:45:43.995Z,99.90
2018-10-01T17:48:13.747Z,99.90
2018-10-01T17:50:43.508Z,99.90
2018-10-01T17:53:13.465Z,99.90
2018-10-01T17:55:43.328Z,99.90
2018-10-01T17:58:12.957Z,99.90
2018-10-01T18:00:42.663Z,99.90
2018-10-01T18:03:12.545Z,99.90
2018-10-01T18:05:42.282Z,99.90
2018-10-01T18:08:11.986Z,99.90
2018-10-01T18:10:41.782Z,99.90
2018-10-01T18:13:12.120Z,99.90
2018-10-01T18:15:41.832Z,99.90
2018-10-01T18:18:11.600Z,99.90
2018-10-01T18:20:41.300Z,99.90
2018-10-01T18:23:11.088Z,99.90
2018-10-01T18:25:40.861Z,99.90
2018-10-01T18:28:10.501Z,99.90
2018-10-01T18:30:40.225Z,99.90
2018-10-01T18:33:09.857Z,99.90
2018-10-01T18:35:39.491Z,99.90
2018-10-01T18:38:09.230Z,99.90
2018-10-01T18:40:38.903Z,99.90
2018-10-01T18:43:08.676Z,99.90
2018-10-01T18:45:38.485Z,99.90
2018-10-01T18:48:09.378Z,99.90
2018-10-01T18:50:39.743Z,99.90
2018-10-01T18:53:09.964Z,99.90
2018-10-01T18:55:40.164Z,99.90
2018-10-01T18:58:10.336Z,99.90
2018-10-01T19:00:40.125Z,99.90
2018-10-01T19:03:09.937Z,99.90
2018-10-01T19:05:39.924Z,99.90
2018-10-01T19:08:09.516Z,99.90
2018-10-01T19:10:39.270Z,99.90
2018-10-01T19:13:09.028Z,99.90
2018-10-01T19:15:38.790Z,99.90
2018-10-01T19:18:08.434Z,99.90
2018-10-01T19:20:38.024Z,99.90
2018-10-01T19:23:07.613Z,99.90
2018-10-01T19:25:37.593Z,99.90
2018-10-01T19:28:07.329Z,99.90
2018-10-01T19:30:36.949Z,99.90
2018-10-01T19:33:07.388Z,99.90
2018-10-01T19:35:37.408Z,99.90
2018-10-01T19:38:07.470Z,99.90
2018-10-01T19:40:37.104Z,99.90
2018-10-01T19:43:07.240Z,99.90
2018-10-01T19:45:36.924Z,99.90
2018-10-01T19:48:07.403Z,99.90
2018-10-01T19:50:36.979Z,99.90
2018-10-01T19:53:07.139Z,99.90
2018-10-01T19:55:36.852Z,99.90
2018-10-01T19:58:06.924Z,99.90
2018-10-01T20:00:36.834Z,99.90
2018-10-01T20:03:06.616Z,99.90
2018-10-01T20:05:36.252Z,99.90
2018-10-01T20:08:06.161Z,99.90
2018-10-01T20:10:35.895Z,99.90
2018-10-01T20:13:06.056Z,99.90
2018-10-01T20:15:35.694Z,99.90
2018-10-01T20:18:05.226Z,99.90
2018-10-01T20:20:34.918Z,99.90
2018-10-01T20:23:04.701Z,99.90
2018-10-01T20:25:34.373Z,99.90
2018-10-01T20:28:04.384Z,99.90
2018-10-01T20:30:34.130Z,99.90
2018-10-01T20:33:04.197Z,99.90
2018-10-01T20:35:34.092Z,99.90
2018-10-01T20:38:03.683Z,99.90
2018-10-01T20:40:33.416Z,99.90
2018-10-01T20:43:03.152Z,99.90
2018-10-01T20:45:32.912Z,99.90
2018-10-01T20:48:02.976Z,99.90
2018-10-01T20:50:32.626Z,99.90
2018-10-01T20:53:02.354Z,99.90
2018-10-01T20:55:31.938Z,99.90
2018-10-01T20:58:01.701Z,99.90
2018-10-01T21:00:31.343Z,99.90
2018-10-01T21:03:01.492Z,99.90
2018-10-01T21:05:31.481Z,99.90
2018-10-01T21:08:01.272Z,99.90
2018-10-01T21:10:30.816Z,99.90
2018-10-01T21:13:00.472Z,99.90
2018-10-01T21:15:30.244Z,99.90
2018-10-01T21:17:59.911Z,99.90
2018-10-01T21:20:30.448Z,99.90
2018-10-01T21:23:00.159Z,99.90
2018-10-01T21:25:29.969Z,99.90
2018-10-01T21:27:59.664Z,99.90
2018-10-01T21:30:29.358Z,99.90
2018-10-01T21:32:59.108Z,99.90
2018-10-01T21:35:28.882Z,99.90
2018-10-01T21:37:58.531Z,99.90
2018-10-01T21:40:30.368Z,99.90
2018-10-01T21:42:59.974Z,99.90
2018-10-01T21:45:29.605Z,99.90
2018-10-01T21:47:59.150Z,99.90
2018-10-01T21:50:28.915Z,99.90
2018-10-01T21:52:58.617Z,99.90
2018-10-01T21:55:28.432Z,99.90
2018-10-01T21:57:58.090Z,99.90
2018-10-01T22:00:35.432Z,99.90
2018-10-01T22:03:05.234Z,99.90
2018-10-01T22:05:34.858Z,99.90
2018-10-01T22:08:04.527Z,99.90
2018-10-01T22:10:41.070Z,99.90
2018-10-01T22:13:10.835Z,99.90
2018-10-01T22:15:45.359Z,99.90
2018-10-01T22:18:17.726Z,99.90
2018-10-01T22:20:47.433Z,99.90
2018-10-01T22:23:17.349Z,99.90
2018-10-01T22:25:47.057Z,99.90
2018-10-01T22:28:16.781Z,99.90
2018-10-01T22:30:46.456Z,99.90
2018-10-01T22:33:16.290Z,99.90
2018-10-01T22:35:45.994Z,99.90
2018-10-01T22:38:15.812Z,99.90
2018-10-01T22:40:45.519Z,99.90
2018-10-01T22:43:15.192Z,99.90
2018-10-01T22:45:45.205Z,99.90
2018-10-01T22:48:15.008Z,99.90
2018-10-01T22:50:44.772Z,99.90
2018-10-01T22:53:14.428Z,99.90
2018-10-01T22:55:43.984Z,99.90
2018-10-01T22:58:13.704Z,99.90
2018-10-01T23:00:43.231Z,99.90
2018-10-01T23:03:13.012Z,99.90
2018-10-01T23:05:43.459Z,99.90
2018-10-01T23:08:13.146Z,99.90
2018-10-01T23:10:42.760Z,99.90
2018-10-01T23:13:12.269Z,99.90
2018-10-01T23:15:41.873Z,99.90
2018-10-01T23:18:11.531Z,99.90
2018-10-01T23:20:41.181Z,99.90
2018-10-01T23:23:11.114Z,99.90
2018-10-01T23:25:40.711Z,99.90
2018-10-01T23:28:10.483Z,99.90
2018-10-01T23:30:40.312Z,99.90
2018-10-01T23:33:09.962Z,99.90
2018-10-01T23:35:39.623Z,99.90
2018-10-01T23:38:09.479Z,99.90
2018-10-01T23:40:39.361Z,99.90
2018-10-01T23:43:08.964Z,99.90
2018-10-01T23:45:38.841Z,99.90
2018-10-01T23:48:11.412Z,99.90
2018-10-01T23:50:41.297Z,99.90
2018-10-01T23:53:13.961Z,99.90
2018-10-01T23:55:43.629Z,99.90
2018-10-01T23:58:13.384Z,99.90
